Terminal Aerodrome Forecast
Issued by NWS Central Illinois

Home | Current Version | Previous Version | Text Only | Print | Product List | Glossary On
Versions: 1 2 3 4 5 6 7 8 9 10 11 12 13 14 15 16 17 18 19 20 21 22 23 24 25 26 27 28
000
FTUS43 KILX 012156 AAB
TAFSPI
TAF AMD
KSPI 012156Z 0122/0218 32008KT 4SM BR VCSH BKN005 OVC015
      TEMPO 0122/0124 SCT005 OVC015
     FM020000 30005KT 4SM BR OVC012
     FM020500 34005KT 3SM BR OVC006
     FM021500 05008KT P6SM BKN025=

USA.gov is the U.S. government's official web portal to all federal, state and local government web resources and services.